createdAt,value
2018-02-07T00:00:56.867Z,7.77
2018-02-07T00:03:58.764Z,7.60
2018-02-07T00:07:00.650Z,7.07
2018-02-07T00:10:02.552Z,7.27
2018-02-07T00:13:04.443Z,8.50
2018-02-07T00:16:06.314Z,7.87
2018-02-07T00:19:08.196Z,7.67
2018-02-07T00:22:10.076Z,7.10
2018-02-07T00:25:11.950Z,7.17
2018-02-07T00:28:13.839Z,7.37
2018-02-07T00:31:15.702Z,8.33
2018-02-07T00:34:17.578Z,7.13
2018-02-07T00:37:19.478Z,9.43
2018-02-07T00:40:21.348Z,7.50
2018-02-07T00:43:23.211Z,8.70
2018-02-07T00:46:25.091Z,8.53
2018-02-07T00:49:27.331Z,9.17
2018-02-07T00:52:29.219Z,6.67
2018-02-07T00:55:31.130Z,7.93
2018-02-07T00:58:32.979Z,8.63
2018-02-07T01:01:34.869Z,7.13
2018-02-07T01:04:36.737Z,7.83
2018-02-07T01:07:38.611Z,8.77
2018-02-07T01:10:40.490Z,7.70
2018-02-07T01:13:42.366Z,7.90
2018-02-07T01:16:44.242Z,6.63
2018-02-07T01:19:46.123Z,8.53
2018-02-07T01:22:48.063Z,7.70
2018-02-07T01:25:49.955Z,8.00
2018-02-07T01:28:51.826Z,7.42
2018-02-07T01:31:53.709Z,7.10
2018-02-07T01:34:55.582Z,8.60
2018-02-07T01:37:57.456Z,8.00
2018-02-07T01:40:59.346Z,8.43
2018-02-07T01:44:01.219Z,7.87
2018-02-07T01:47:03.107Z,8.17
2018-02-07T01:50:04.984Z,8.20
2018-02-07T01:53:06.872Z,7.93
2018-02-07T01:56:08.756Z,7.97
2018-02-07T01:59:10.639Z,8.40
2018-02-07T02:02:12.506Z,7.23
2018-02-07T02:05:14.400Z,7.70
2018-02-07T02:08:16.271Z,8.73
2018-02-07T02:11:18.175Z,7.80
2018-02-07T02:14:20.059Z,10.00
2018-02-07T02:17:21.932Z,9.77
2018-02-07T02:20:23.803Z,8.23
2018-02-07T02:23:25.696Z,8.17
2018-02-07T02:26:27.577Z,8.20
2018-02-07T02:29:29.478Z,7.47
2018-02-07T02:32:31.354Z,8.60
2018-02-07T02:35:33.247Z,8.57
2018-02-07T02:38:35.109Z,7.77
2018-02-07T02:41:36.974Z,8.13
2018-02-07T02:44:38.866Z,8.23
2018-02-07T02:47:40.787Z,7.33
2018-02-07T02:50:42.656Z,7.93
2018-02-07T02:53:44.543Z,8.53
2018-02-07T02:56:46.418Z,7.67
2018-02-07T02:59:48.287Z,8.67
2018-02-07T03:02:50.180Z,7.80
2018-02-07T03:05:52.057Z,7.90
2018-02-07T03:08:53.942Z,8.17
2018-02-07T03:11:55.823Z,8.90
2018-02-07T03:14:57.704Z,8.97
2018-02-07T03:17:59.591Z,7.50
2018-02-07T03:21:01.488Z,8.23
2018-02-07T03:24:03.383Z,7.83
2018-02-07T03:27:05.255Z,8.07
2018-02-07T03:30:07.123Z,7.57
2018-02-07T03:33:09.086Z,8.00
2018-02-07T03:36:10.978Z,8.20
2018-02-07T03:39:12.835Z,7.63
2018-02-07T03:42:14.711Z,7.57
2018-02-07T03:45:16.608Z,7.93
2018-02-07T03:48:18.478Z,8.60
2018-02-07T03:51:20.356Z,8.23
2018-02-07T03:54:22.240Z,8.93
2018-02-07T03:57:24.117Z,9.03
2018-02-07T04:00:26.011Z,7.80
2018-02-07T04:03:27.901Z,8.53
2018-02-07T04:06:29.823Z,7.87
2018-02-07T04:09:31.718Z,8.38
2018-02-07T04:12:33.590Z,7.87
2018-02-07T04:15:35.484Z,7.37
2018-02-07T04:18:37.369Z,8.47
2018-02-07T04:21:39.264Z,9.00
2018-02-07T04:24:41.134Z,8.27
2018-02-07T04:27:43.015Z,7.40
2018-02-07T04:30:44.895Z,7.57
2018-02-07T04:33:46.772Z,7.37
2018-02-07T04:36:48.640Z,9.03
2018-02-07T04:39:50.519Z,7.43
2018-02-07T04:42:52.398Z,8.30
2018-02-07T04:45:54.588Z,7.83
2018-02-07T04:48:56.454Z,8.70
2018-02-07T04:51:58.324Z,7.80
2018-02-07T04:55:00.224Z,8.20
2018-02-07T04:58:02.163Z,9.30
2018-02-07T05:01:04.075Z,8.43
2018-02-07T05:04:05.971Z,7.85
2018-02-07T05:07:07.862Z,7.33
2018-02-07T05:10:09.766Z,7.03
2018-02-07T05:13:11.734Z,8.50
2018-02-07T05:16:13.974Z,7.17
2018-02-07T05:19:15.944Z,7.77
2018-02-07T05:22:17.811Z,7.67
2018-02-07T05:25:19.704Z,7.43
2018-02-07T05:28:21.592Z,7.13
2018-02-07T05:31:23.471Z,8.43
2018-02-07T05:34:25.356Z,7.83
2018-02-07T05:37:27.234Z,7.17
2018-02-07T05:40:29.121Z,7.27
2018-02-07T05:43:31.011Z,7.57
2018-02-07T05:46:32.900Z,7.40
2018-02-07T05:49:34.811Z,7.23
2018-02-07T05:52:36.719Z,6.77
2018-02-07T05:55:38.702Z,7.57
2018-02-07T05:58:40.595Z,7.27
2018-02-07T06:01:42.491Z,7.60
2018-02-07T06:04:44.419Z,6.63
2018-02-07T06:07:46.387Z,8.00
2018-02-07T06:10:48.279Z,8.57
2018-02-07T06:13:50.210Z,7.13
2018-02-07T06:16:52.103Z,6.47
2018-02-07T06:19:54.019Z,7.23
2018-02-07T06:22:56.009Z,8.30
2018-02-07T06:25:58.015Z,8.17
2018-02-07T06:29:00.000Z,8.37
2018-02-07T06:32:01.862Z,7.03
2018-02-07T06:35:03.746Z,7.07
2018-02-07T06:38:05.638Z,8.27
2018-02-07T06:41:07.687Z,6.80
2018-02-07T06:44:09.559Z,6.50
2018-02-07T06:47:11.464Z,6.40
2018-02-07T06:50:14.096Z,7.27
2018-02-07T06:53:15.948Z,6.80
2018-02-07T06:56:17.831Z,7.63
2018-02-07T06:59:19.702Z,7.13
2018-02-07T07:02:21.587Z,7.17
2018-02-07T07:05:23.500Z,6.77
2018-02-07T07:08:25.347Z,6.63
2018-02-07T07:11:27.228Z,7.90
2018-02-07T07:14:29.100Z,7.00
2018-02-07T07:17:30.992Z,7.67
2018-02-07T07:20:32.858Z,6.77
2018-02-07T07:23:34.745Z,7.13
2018-02-07T07:26:36.617Z,6.90
2018-02-07T07:29:38.487Z,7.50
2018-02-07T07:32:40.371Z,6.83
2018-02-07T07:35:42.251Z,7.20
2018-02-07T07:38:45.129Z,8.47
2018-02-07T07:41:47.060Z,8.27
2018-02-07T07:44:49.043Z,7.67
2018-02-07T07:47:50.930Z,7.57
2018-02-07T07:50:52.795Z,6.53
2018-02-07T07:53:54.662Z,8.90
2018-02-07T07:56:56.595Z,12.80
2018-02-07T07:59:58.474Z,9.07
2018-02-07T08:03:00.356Z,7.97
2018-02-07T08:06:02.236Z,8.10
2018-02-07T08:09:04.147Z,7.57
2018-02-07T08:12:06.032Z,9.07
2018-02-07T08:15:07.907Z,8.50
2018-02-07T08:18:09.787Z,8.47
2018-02-07T08:21:11.671Z,7.30
2018-02-07T08:24:13.549Z,7.17
2018-02-07T08:27:15.420Z,7.80
2018-02-07T08:30:17.311Z,7.90
2018-02-07T08:33:19.225Z,9.17
2018-02-07T08:36:21.103Z,8.70
2018-02-07T08:39:22.981Z,8.27
2018-02-07T08:42:24.859Z,7.57
2018-02-07T08:45:26.739Z,7.93
2018-02-07T08:48:28.619Z,8.37
2018-02-07T08:51:30.500Z,8.87
2018-02-07T08:54:32.392Z,8.97
2018-02-07T08:57:34.269Z,7.50
2018-02-07T09:00:36.154Z,10.33
2018-02-07T09:03:38.052Z,8.17
2018-02-07T09:06:39.930Z,7.37
2018-02-07T09:09:41.811Z,10.73
2018-02-07T09:12:43.683Z,7.30
2018-02-07T09:15:45.560Z,7.90
2018-02-07T09:18:47.435Z,9.03
2018-02-07T09:21:49.318Z,9.43
2018-02-07T09:24:51.194Z,7.90
2018-02-07T09:27:53.086Z,9.57
2018-02-07T09:30:54.955Z,8.63
2018-02-07T09:33:56.836Z,8.03
2018-02-07T09:36:58.708Z,8.87
2018-02-07T09:40:00.574Z,8.57
2018-02-07T09:43:02.622Z,8.57
2018-02-07T09:46:04.548Z,8.47
2018-02-07T09:49:06.451Z,9.03
2018-02-07T09:52:08.325Z,9.17
2018-02-07T09:55:10.198Z,7.63
2018-02-07T09:58:12.092Z,7.97
2018-02-07T10:01:13.972Z,9.00
2018-02-07T10:04:15.864Z,8.67
2018-02-07T10:07:17.727Z,8.20
2018-02-07T10:10:19.615Z,9.47
2018-02-07T10:13:21.495Z,7.60
2018-02-07T10:16:23.392Z,8.10
2018-02-07T10:19:25.309Z,7.83
2018-02-07T10:22:27.150Z,10.30
2018-02-07T10:25:29.035Z,7.57
2018-02-07T10:28:30.923Z,8.30
2018-02-07T10:31:32.798Z,7.80
2018-02-07T10:34:34.683Z,8.73
2018-02-07T10:37:36.546Z,8.27
2018-02-07T10:40:38.427Z,7.90
2018-02-07T10:43:40.306Z,9.77
2018-02-07T10:46:42.187Z,9.47
2018-02-07T10:49:44.094Z,8.50
2018-02-07T10:52:45.975Z,7.93
2018-02-07T10:55:47.851Z,8.70
2018-02-07T10:58:49.728Z,8.40
2018-02-07T11:01:51.605Z,8.70
2018-02-07T11:04:53.492Z,8.40
2018-02-07T11:07:55.355Z,8.73
2018-02-07T11:10:57.231Z,8.00
2018-02-07T11:13:59.131Z,8.90
2018-02-07T11:17:01.022Z,8.07
2018-02-07T11:20:02.890Z,8.07
2018-02-07T11:23:04.766Z,8.90
2018-02-07T11:26:06.641Z,7.80
2018-02-07T11:29:08.534Z,8.60
2018-02-07T11:32:10.417Z,8.97
2018-02-07T11:35:12.298Z,9.40
2018-02-07T11:38:14.204Z,7.83
2018-02-07T11:41:16.088Z,9.30
2018-02-07T11:44:17.986Z,9.77
2018-02-07T11:47:19.874Z,11.67
2018-02-07T11:50:21.751Z,11.83
2018-02-07T11:53:23.623Z,10.80
2018-02-07T11:56:25.515Z,11.40
2018-02-07T11:59:27.395Z,12.27
2018-02-07T12:02:29.279Z,18.50
2018-02-07T12:05:31.159Z,13.47
2018-02-07T12:08:33.039Z,11.00
2018-02-07T12:11:34.927Z,12.57
2018-02-07T12:14:36.834Z,10.60
2018-02-07T12:17:38.714Z,12.00
2018-02-07T12:20:40.603Z,11.00
2018-02-07T12:23:42.470Z,11.00
2018-02-07T12:26:44.351Z,10.70
2018-02-07T12:29:46.231Z,11.30
2018-02-07T12:32:48.158Z,16.07
2018-02-07T12:35:49.984Z,12.47
2018-02-07T12:38:51.860Z,10.60
2018-02-07T12:41:53.738Z,12.13
2018-02-07T12:44:55.624Z,10.70
2018-02-07T12:47:57.554Z,10.73
2018-02-07T12:50:59.456Z,13.43
2018-02-07T12:54:01.339Z,10.20
2018-02-07T12:57:03.215Z,11.90
2018-02-07T13:00:05.103Z,12.67
2018-02-07T13:03:06.979Z,9.60
2018-02-07T13:06:08.863Z,10.30
2018-02-07T13:09:10.743Z,10.10
2018-02-07T13:12:12.627Z,14.63
2018-02-07T13:15:14.503Z,9.23
2018-02-07T13:18:16.379Z,10.30
2018-02-07T13:21:18.255Z,8.63
2018-02-07T13:24:20.139Z,9.93
2018-02-07T13:27:22.031Z,10.50
2018-02-07T13:30:23.940Z,13.20
2018-02-07T13:33:25.819Z,14.43
2018-02-07T13:36:27.693Z,10.53
2018-02-07T13:39:29.572Z,11.47
2018-02-07T13:42:31.466Z,12.73
2018-02-07T13:45:33.331Z,8.80
2018-02-07T13:48:35.231Z,10.23
2018-02-07T13:51:37.110Z,12.13
2018-02-07T13:54:38.999Z,11.10
2018-02-07T13:57:40.906Z,9.63
2018-02-07T14:00:46.996Z,11.60
2018-02-07T14:03:48.895Z,12.07
2018-02-07T14:06:50.856Z,11.50
2018-02-07T14:09:52.727Z,8.50
2018-02-07T14:12:54.599Z,9.37
2018-02-07T14:15:56.484Z,10.07
2018-02-07T14:18:58.366Z,19.03
2018-02-07T14:22:00.255Z,15.07
2018-02-07T14:25:02.159Z,11.83
2018-02-07T14:28:04.047Z,13.28
2018-02-07T14:31:05.947Z,17.90
2018-02-07T14:34:07.829Z,13.30
2018-02-07T14:37:09.719Z,18.40
2018-02-07T14:40:11.629Z,18.77
2018-02-07T14:43:13.852Z,15.73
2018-02-07T14:46:15.723Z,11.73
2018-02-07T14:49:17.606Z,13.20
2018-02-07T14:52:19.484Z,16.33
2018-02-07T14:55:21.344Z,14.63
2018-02-07T14:58:23.307Z,11.93
2018-02-07T15:01:25.200Z,11.75
2018-02-07T15:04:27.079Z,13.73
2018-02-07T15:07:28.971Z,11.30
2018-02-07T15:10:30.843Z,16.43
2018-02-07T15:13:32.731Z,11.07
2018-02-07T15:16:34.611Z,11.13
2018-02-07T15:19:36.481Z,12.50
2018-02-07T15:22:38.370Z,12.20
2018-02-07T15:25:40.256Z,12.00
2018-02-07T15:28:42.118Z,13.60
2018-02-07T15:31:44.423Z,11.68
2018-02-07T15:34:46.311Z,10.53
2018-02-07T15:37:48.199Z,10.98
2018-02-07T15:40:50.079Z,10.88
2018-02-07T15:43:51.958Z,11.20
2018-02-07T15:46:53.838Z,10.40
2018-02-07T15:49:55.714Z,10.20
2018-02-07T15:52:57.599Z,9.00
2018-02-07T15:55:59.487Z,11.63
2018-02-07T15:59:01.386Z,12.70
2018-02-07T16:02:03.267Z,10.90
2018-02-07T16:05:05.151Z,10.33
2018-02-07T16:08:07.039Z,12.05
2018-02-07T16:11:08.915Z,10.30
2018-02-07T16:14:10.795Z,10.67
2018-02-07T16:17:12.674Z,10.20
2018-02-07T16:20:14.554Z,9.33
2018-02-07T16:23:16.429Z,10.17
2018-02-07T16:26:18.322Z,9.17
2018-02-07T16:29:20.195Z,9.48
2018-02-07T16:32:22.082Z,10.57
2018-02-07T16:35:23.966Z,11.03
2018-02-07T16:38:25.851Z,8.33
2018-02-07T16:41:27.755Z,9.70
2018-02-07T16:44:29.667Z,10.67
2018-02-07T16:47:31.534Z,10.60
2018-02-07T16:50:33.414Z,9.60
2018-02-07T16:53:35.303Z,9.35
2018-02-07T16:56:37.179Z,8.47
2018-02-07T16:59:39.082Z,9.00
2018-02-07T17:02:40.975Z,10.10
2018-02-07T17:05:42.862Z,8.20
2018-02-07T17:08:44.748Z,8.37
2018-02-07T17:11:46.635Z,8.18
2018-02-07T17:14:48.540Z,9.53
2018-02-07T17:17:50.390Z,9.10
2018-02-07T17:20:52.271Z,8.70
2018-02-07T17:23:54.175Z,8.65
2018-02-07T17:26:56.060Z,8.37
2018-02-07T17:29:58.152Z,9.23
2018-02-07T17:33:00.045Z,10.00
2018-02-07T17:36:01.927Z,8.97
2018-02-07T17:39:03.828Z,8.60
2018-02-07T17:42:05.725Z,9.07
2018-02-07T17:45:07.627Z,8.50
2018-02-07T17:48:09.519Z,7.75
2018-02-07T17:51:11.399Z,9.80
2018-02-07T17:54:13.275Z,12.47
2018-02-07T17:57:15.263Z,9.68
2018-02-07T18:00:17.159Z,10.10
2018-02-07T18:03:19.047Z,8.23
2018-02-07T18:06:20.914Z,9.43
2018-02-07T18:09:22.812Z,9.67
2018-02-07T18:12:24.691Z,8.90
2018-02-07T18:15:26.579Z,9.08
2018-02-07T18:18:28.542Z,11.78
2018-02-07T18:21:30.427Z,12.33
2018-02-07T18:24:32.334Z,10.80
2018-02-07T18:27:34.243Z,11.20
2018-02-07T18:30:36.234Z,11.05
2018-02-07T18:33:38.183Z,9.05
2018-02-07T18:36:40.103Z,9.27
2018-02-07T18:39:42.035Z,9.68
2018-02-07T18:42:43.976Z,10.13
2018-02-07T18:45:45.907Z,9.35
2018-02-07T18:48:47.876Z,8.65
2018-02-07T18:51:49.816Z,10.63
2018-02-07T18:54:51.718Z,12.07
2018-02-07T18:57:53.669Z,8.80
2018-02-07T19:00:55.607Z,8.58
2018-02-07T19:03:57.556Z,10.10
2018-02-07T19:06:59.451Z,9.70
2018-02-07T19:10:01.388Z,8.63
2018-02-07T19:13:03.326Z,8.30
2018-02-07T19:16:05.214Z,9.08
2018-02-07T19:19:08.016Z,9.28
2018-02-07T19:22:09.967Z,8.87
2018-02-07T19:25:11.899Z,9.00
2018-02-07T19:28:13.845Z,8.23
2018-02-07T19:31:15.746Z,8.40
2018-02-07T19:34:17.698Z,8.55
2018-02-07T19:37:19.648Z,9.13
2018-02-07T19:40:21.587Z,9.53
2018-02-07T19:43:23.510Z,8.18
2018-02-07T19:46:25.475Z,11.18
2018-02-07T19:49:28.174Z,9.18
2018-02-07T19:52:30.043Z,10.90
2018-02-07T19:55:31.927Z,11.33
2018-02-07T19:58:33.832Z,9.43
2018-02-07T20:01:35.780Z,9.77
2018-02-07T20:04:37.722Z,11.00
2018-02-07T20:07:39.671Z,12.83
2018-02-07T20:10:41.539Z,9.87
2018-02-07T20:13:43.427Z,12.33
2018-02-07T20:16:45.367Z,13.47
2018-02-07T20:19:47.262Z,13.27
2018-02-07T20:22:49.558Z,12.23
2018-02-07T20:25:51.455Z,11.87
2018-02-07T20:28:53.395Z,10.90
2018-02-07T20:31:55.358Z,10.47
2018-02-07T20:34:57.261Z,11.37
2018-02-07T20:37:59.203Z,11.43
2018-02-07T20:41:01.139Z,10.97
2018-02-07T20:44:03.088Z,11.77
2018-02-07T20:47:04.994Z,11.03
2018-02-07T20:50:06.948Z,12.13
2018-02-07T20:53:08.883Z,10.87
2018-02-07T20:56:10.831Z,11.53
2018-02-07T20:59:12.755Z,12.70
2018-02-07T21:02:14.711Z,13.93
2018-02-07T21:05:16.628Z,12.03
2018-02-07T21:08:18.587Z,13.20
2018-02-07T21:11:20.507Z,13.07
2018-02-07T21:14:22.428Z,12.37
2018-02-07T21:17:24.371Z,13.77
2018-02-07T21:20:26.307Z,13.80
2018-02-07T21:23:28.252Z,14.27
2018-02-07T21:26:30.197Z,12.27
2018-02-07T21:29:32.122Z,13.30
2018-02-07T21:32:34.071Z,11.87
2018-02-07T21:35:36.019Z,11.77
2018-02-07T21:38:37.946Z,10.70
2018-02-07T21:41:40.209Z,12.20
2018-02-07T21:44:42.099Z,12.13
2018-02-07T21:47:44.103Z,11.30
2018-02-07T21:50:46.027Z,12.70
2018-02-07T21:53:47.914Z,11.67
2018-02-07T21:56:50.058Z,11.17
2018-02-07T21:59:52.126Z,14.00
2018-02-07T22:02:54.062Z,12.70
2018-02-07T22:05:55.987Z,11.67
2018-02-07T22:08:57.903Z,11.50
2018-02-07T22:11:59.891Z,11.87
2018-02-07T22:15:01.883Z,11.03
2018-02-07T22:18:03.775Z,12.03
2018-02-07T22:21:05.688Z,10.20
2018-02-07T22:24:07.763Z,11.87
2018-02-07T22:27:09.679Z,10.93
2018-02-07T22:30:11.675Z,10.40
2018-02-07T22:33:13.686Z,11.87
2018-02-07T22:36:15.683Z,11.00
2018-02-07T22:39:17.667Z,9.70
2018-02-07T22:42:19.532Z,11.20
2018-02-07T22:45:21.687Z,12.50
2018-02-07T22:48:23.591Z,11.70
2018-02-07T22:51:25.603Z,11.67
2018-02-07T22:54:27.578Z,10.30
2018-02-07T22:57:29.470Z,12.10
2018-02-07T23:00:31.368Z,10.90
2018-02-07T23:03:33.260Z,11.43
2018-02-07T23:06:35.155Z,11.77
2018-02-07T23:09:37.047Z,10.67
2018-02-07T23:12:39.043Z,11.30
2018-02-07T23:15:41.043Z,10.60
2018-02-07T23:18:43.038Z,10.70
2018-02-07T23:21:44.935Z,12.43
2018-02-07T23:24:46.834Z,10.77
2018-02-07T23:27:48.848Z,11.63
2018-02-07T23:30:50.902Z,10.40
2018-02-07T23:33:52.830Z,10.97
2018-02-07T23:36:54.810Z,10.83
2018-02-07T23:39:56.703Z,11.23
2018-02-07T23:42:58.619Z,12.93
2018-02-07T23:46:00.608Z,10.57
2018-02-07T23:49:02.612Z,10.40
2018-02-07T23:52:04.507Z,11.60
2018-02-07T23:55:06.399Z,11.73
2018-02-07T23:58:08.407Z,12.80
